createdAt,value
2023-01-06T00:01:19.481Z,14.55
2023-01-06T00:03:50.107Z,16.67
2023-01-06T00:06:20.348Z,12.98
2023-01-06T00:08:48.125Z,13.57
2023-01-06T00:11:16.880Z,18.08
2023-01-06T00:13:44.671Z,13.25
2023-01-06T00:16:14.056Z,19.15
2023-01-06T00:18:42.814Z,11.48
2023-01-06T00:21:11.550Z,13.50
2023-01-06T00:23:41.212Z,17.50
2023-01-06T00:26:10.539Z,17.83
2023-01-06T00:28:38.675Z,17.42
2023-01-06T00:31:08.374Z,18.45
2023-01-06T00:33:36.607Z,16.38
2023-01-06T00:36:05.010Z,20.00
2023-01-06T00:38:32.847Z,17.38
2023-01-06T00:41:04.765Z,20.75
2023-01-06T00:43:32.581Z,23.27
2023-01-06T00:46:02.865Z,25.48
2023-01-06T00:48:30.751Z,23.63
2023-01-06T00:51:01.538Z,22.85
2023-01-06T00:53:29.247Z,20.77
2023-01-06T00:56:02.269Z,18.17
2023-01-06T00:58:31.692Z,20.98
2023-01-06T01:00:59.768Z,17.75
2023-01-06T01:03:27.607Z,19.08
2023-01-06T01:06:00.359Z,19.67
2023-01-06T01:08:28.130Z,20.35
2023-01-06T01:10:56.683Z,23.25
2023-01-06T01:13:25.849Z,19.48
2023-01-06T01:15:53.619Z,17.05
2023-01-06T01:18:21.548Z,21.30
2023-01-06T01:20:49.451Z,20.25
2023-01-06T01:23:17.189Z,24.80
2023-01-06T01:25:45.264Z,22.00
2023-01-06T01:28:13.001Z,26.52
2023-01-06T01:30:42.148Z,26.52
2023-01-06T01:33:09.955Z,31.60
2023-01-06T01:35:37.680Z,36.47
2023-01-06T01:38:05.379Z,31.75
2023-01-06T01:40:33.159Z,29.30
2023-01-06T01:43:00.888Z,28.67
2023-01-06T01:45:30.423Z,33.58
2023-01-06T01:48:03.669Z,26.55
2023-01-06T01:50:35.602Z,23.48
2023-01-06T01:53:08.627Z,26.40
2023-01-06T01:55:38.417Z,26.85
2023-01-06T01:58:11.110Z,27.98
2023-01-06T02:00:40.890Z,30.63
2023-01-06T02:03:11.156Z,28.50
2023-01-06T02:05:42.452Z,26.73
2023-01-06T02:08:20.082Z,27.17
2023-01-06T02:10:47.925Z,23.95
2023-01-06T02:13:15.852Z,24.52
2023-01-06T02:15:44.692Z,22.63
2023-01-06T02:18:43.822Z,24.00
2023-01-06T02:21:23.609Z,20.08
2023-01-06T02:24:24.237Z,22.42
2023-01-06T02:27:15.736Z,20.55
2023-01-06T02:30:08.075Z,26.83
2023-01-06T02:35:22.282Z,23.67
2023-01-06T02:38:05.637Z,34.63
2023-01-06T02:40:51.460Z,23.88
2023-01-06T02:43:28.217Z,24.58
2023-01-06T02:46:08.946Z,24.48
2023-01-06T02:48:46.087Z,34.03
2023-01-06T02:51:19.705Z,28.45
2023-01-06T02:53:58.876Z,185.40
2023-01-06T02:56:32.695Z,46.30
2023-01-06T02:59:06.239Z,465.83
2023-01-06T03:01:38.614Z,523.40
2023-01-06T03:04:16.026Z,404.77
2023-01-06T03:06:48.161Z,397.17
2023-01-06T03:11:49.938Z,99.85
2023-01-06T03:14:22.833Z,182.27
2023-01-06T03:16:50.792Z,167.68
2023-01-06T03:19:19.967Z,191.85
2023-01-06T03:21:49.869Z,76.80
2023-01-06T03:24:18.316Z,245.90
2023-01-06T03:26:48.103Z,140.85
2023-01-06T03:29:19.602Z,126.22
2023-01-06T03:31:59.476Z,73.72
2023-01-06T03:34:41.026Z,71.88
2023-01-06T03:37:14.999Z,84.15
2023-01-06T03:39:51.440Z,116.25
2023-01-06T03:42:51.996Z,189.45
2023-01-06T03:45:41.632Z,124.18
2023-01-06T03:48:17.427Z,120.22
2023-01-06T03:50:53.966Z,152.77
2023-01-06T03:53:30.513Z,232.38
2023-01-06T03:56:07.351Z,289.73
2023-01-06T03:58:37.323Z,136.50
2023-01-06T04:01:06.837Z,244.00
2023-01-06T04:03:35.767Z,65.28
2023-01-06T04:06:05.403Z,164.45
2023-01-06T04:08:33.197Z,194.73
2023-01-06T04:11:00.900Z,237.18
2023-01-06T04:13:27.701Z,138.23
2023-01-06T04:15:55.553Z,267.48
2023-01-06T04:18:23.398Z,252.82
2023-01-06T04:20:51.121Z,279.17
2023-01-06T04:23:20.185Z,351.50
2023-01-06T04:25:48.270Z,295.52
2023-01-06T04:28:16.077Z,237.32
2023-01-06T04:30:43.860Z,82.32
2023-01-06T04:33:11.639Z,122.70
2023-01-06T04:35:39.459Z,225.40
2023-01-06T04:38:07.248Z,157.27
2023-01-06T04:40:36.345Z,114.65
2023-01-06T04:43:07.104Z,118.93
2023-01-06T04:45:35.434Z,46.25
2023-01-06T04:48:03.424Z,72.88
2023-01-06T04:50:31.312Z,57.45
2023-01-06T04:52:59.076Z,66.47
2023-01-06T04:55:27.531Z,34.72
2023-01-06T04:57:57.049Z,30.70
2023-01-06T05:00:24.944Z,30.38
2023-01-06T05:02:52.855Z,20.25
2023-01-06T05:05:20.612Z,16.38
2023-01-06T05:07:48.433Z,17.45
2023-01-06T05:10:16.230Z,18.20
2023-01-06T05:12:44.345Z,17.80
2023-01-06T05:15:13.772Z,18.45
2023-01-06T05:17:41.562Z,21.73
2023-01-06T05:20:10.527Z,20.63
2023-01-06T05:22:38.243Z,21.45
2023-01-06T05:25:06.750Z,34.83
2023-01-06T05:27:34.558Z,30.00
2023-01-06T05:30:02.490Z,29.05
2023-01-06T05:32:31.700Z,20.40
2023-01-06T05:34:59.479Z,20.60
2023-01-06T05:37:27.402Z,18.45
2023-01-06T05:39:55.420Z,19.35
2023-01-06T05:42:23.167Z,20.00
2023-01-06T05:44:51.021Z,17.83
2023-01-06T05:47:18.824Z,20.17
2023-01-06T05:49:48.074Z,24.35
2023-01-06T05:52:16.028Z,26.40
2023-01-06T05:54:43.917Z,20.73
2023-01-06T05:57:11.657Z,23.52
2023-01-06T05:59:39.440Z,25.55
2023-01-06T06:02:07.318Z,20.85
2023-01-06T06:04:35.282Z,23.08
2023-01-06T06:07:04.434Z,21.23
2023-01-06T06:09:32.216Z,20.77
2023-01-06T06:12:00.000Z,18.30
2023-01-06T06:14:28.024Z,23.55
2023-01-06T06:16:56.277Z,25.52
2023-01-06T06:19:23.988Z,24.42
2023-01-06T06:21:52.107Z,21.40
2023-01-06T06:24:21.264Z,24.75
2023-01-06T06:26:49.071Z,23.17
2023-01-06T06:29:16.898Z,19.75
2023-01-06T06:31:45.656Z,20.58
2023-01-06T06:34:14.737Z,20.17
2023-01-06T06:36:42.549Z,18.25
2023-01-06T06:39:10.282Z,16.95
2023-01-06T06:41:39.467Z,15.00
2023-01-06T06:44:07.255Z,19.75
2023-01-06T06:46:35.067Z,14.82
2023-01-06T06:49:02.891Z,15.70
2023-01-06T06:51:31.844Z,14.23
2023-01-06T06:53:59.951Z,14.38
2023-01-06T06:56:27.773Z,13.68
2023-01-06T06:58:56.988Z,15.40
2023-01-06T07:01:24.953Z,16.27
2023-01-06T07:03:52.814Z,15.80
2023-01-06T07:06:24.163Z,12.73
2023-01-06T07:08:52.374Z,9.93
2023-01-06T07:11:20.424Z,10.43
2023-01-06T07:13:48.313Z,11.98
2023-01-06T07:16:18.251Z,11.35
2023-01-06T07:18:46.100Z,10.35
2023-01-06T07:21:13.880Z,12.43
2023-01-06T07:23:41.679Z,11.20
2023-01-06T07:26:11.752Z,9.45
2023-01-06T07:28:39.539Z,10.23
2023-01-06T07:31:07.263Z,10.65
2023-01-06T07:33:36.444Z,10.77
2023-01-06T07:36:04.517Z,10.43
2023-01-06T07:38:32.272Z,9.75
2023-01-06T07:41:01.484Z,7.97
2023-01-06T07:43:29.913Z,9.05
2023-01-06T07:45:57.768Z,9.25
2023-01-06T07:48:25.590Z,9.07
2023-01-06T07:50:54.982Z,9.65
2023-01-06T07:53:23.042Z,11.55
2023-01-06T07:55:54.242Z,10.30
2023-01-06T07:58:23.999Z,9.47
2023-01-06T08:00:51.963Z,9.23
2023-01-06T08:03:19.796Z,8.80
2023-01-06T08:05:47.659Z,10.43
2023-01-06T08:08:18.673Z,12.45
2023-01-06T08:10:46.424Z,11.80
2023-01-06T08:13:18.900Z,13.23
2023-01-06T08:15:51.943Z,11.57
2023-01-06T08:18:20.138Z,12.18
2023-01-06T08:20:47.856Z,14.25
2023-01-06T08:23:17.020Z,11.55
2023-01-06T08:25:44.865Z,13.15
2023-01-06T08:28:12.614Z,12.63
2023-01-06T08:30:41.745Z,12.98
2023-01-06T08:33:09.562Z,9.70
2023-01-06T08:35:37.310Z,13.90
2023-01-06T08:38:05.129Z,10.55
2023-01-06T08:40:34.315Z,10.23
2023-01-06T08:43:02.309Z,11.60
2023-01-06T08:45:30.150Z,9.63
2023-01-06T08:47:57.905Z,9.10
2023-01-06T08:50:26.736Z,9.68
2023-01-06T08:52:55.176Z,10.88
2023-01-06T08:55:23.010Z,9.35
2023-01-06T08:57:54.702Z,8.90
2023-01-06T09:00:22.981Z,11.63
2023-01-06T09:02:50.798Z,11.70
2023-01-06T09:05:19.010Z,9.93
2023-01-06T09:07:46.922Z,11.07
2023-01-06T09:10:14.709Z,9.30
2023-01-06T09:12:42.517Z,13.65
2023-01-06T09:15:12.319Z,14.20
2023-01-06T09:17:40.338Z,14.38
2023-01-06T09:20:08.891Z,11.93
2023-01-06T09:22:36.848Z,13.05
2023-01-06T09:25:05.214Z,16.45
2023-01-06T09:27:33.043Z,18.05
2023-01-06T09:30:00.855Z,17.35
2023-01-06T09:32:30.084Z,18.98
2023-01-06T09:34:57.845Z,14.25
2023-01-06T09:37:25.711Z,16.55
2023-01-06T09:39:53.434Z,11.63
2023-01-06T09:42:38.358Z,12.88
2023-01-06T09:45:11.687Z,12.88
2023-01-06T09:47:46.711Z,27.83
2023-01-06T09:50:22.641Z,24.45
2023-01-06T09:52:55.215Z,11.65
2023-01-06T09:55:32.378Z,11.10
2023-01-06T09:58:04.758Z,11.55
2023-01-06T10:00:39.289Z,11.10
2023-01-06T10:03:13.372Z,9.55
2023-01-06T10:05:53.203Z,12.32
2023-01-06T10:08:29.736Z,10.70
2023-01-06T10:11:11.347Z,8.98
2023-01-06T10:13:53.904Z,8.65
2023-01-06T10:16:31.634Z,8.00
2023-01-06T10:19:13.473Z,8.18
2023-01-06T10:21:47.861Z,8.88
2023-01-06T10:24:32.679Z,8.25
2023-01-06T10:27:09.031Z,9.02
2023-01-06T10:29:39.316Z,15.05
2023-01-06T10:32:11.299Z,9.00
2023-01-06T10:34:40.676Z,6.75
2023-01-06T10:37:19.932Z,9.25
2023-01-06T10:39:51.731Z,10.63
2023-01-06T10:42:47.239Z,8.02
2023-01-06T10:45:15.592Z,9.32
2023-01-06T10:47:44.662Z,9.80
2023-01-06T10:50:16.328Z,9.75
2023-01-06T10:52:44.546Z,7.95
2023-01-06T10:55:28.395Z,8.63
2023-01-06T10:58:01.571Z,10.10
2023-01-06T11:00:29.504Z,9.10
2023-01-06T11:03:19.463Z,9.18
2023-01-06T11:06:11.613Z,8.70
2023-01-06T11:08:41.114Z,9.73
2023-01-06T11:11:27.217Z,9.98
2023-01-06T11:13:58.357Z,7.70
2023-01-06T11:16:29.178Z,7.15
2023-01-06T11:18:59.836Z,6.07
2023-01-06T11:21:40.648Z,9.32
2023-01-06T11:24:18.986Z,6.65
2023-01-06T11:26:51.939Z,10.35
2023-01-06T11:29:25.305Z,7.07
2023-01-06T11:31:53.412Z,6.80
2023-01-06T11:34:24.041Z,4.97
2023-01-06T11:36:53.865Z,5.80
2023-01-06T11:39:28.425Z,6.13
2023-01-06T11:42:02.929Z,5.93
2023-01-06T11:44:32.693Z,5.78
2023-01-06T11:47:03.372Z,4.47
2023-01-06T11:49:34.246Z,4.93
2023-01-06T11:52:06.886Z,6.07
2023-01-06T11:54:37.590Z,5.95
2023-01-06T11:57:24.304Z,5.43
2023-01-06T12:00:19.099Z,8.55
2023-01-06T12:02:53.899Z,8.70
2023-01-06T12:05:31.092Z,6.32
2023-01-06T12:08:00.878Z,4.80
2023-01-06T12:10:33.732Z,7.47
2023-01-06T12:13:01.571Z,5.32
2023-01-06T12:15:31.650Z,5.70
2023-01-06T12:18:05.992Z,7.05
2023-01-06T12:20:36.943Z,4.15
2023-01-06T12:23:12.397Z,5.28
2023-01-06T12:25:43.782Z,4.43
2023-01-06T12:28:18.031Z,7.38
2023-01-06T12:30:54.269Z,3.25
2023-01-06T12:33:37.023Z,5.93
2023-01-06T12:36:09.067Z,4.45
2023-01-06T12:41:18.140Z,4.20
2023-01-06T12:45:15.461Z,4.50
2023-01-06T12:47:48.300Z,3.50
2023-01-06T12:50:22.511Z,3.53
2023-01-06T12:52:56.591Z,3.97
2023-01-06T12:55:33.254Z,4.45
2023-01-06T12:58:08.916Z,3.03
2023-01-06T13:00:49.660Z,3.97
2023-01-06T13:03:48.335Z,3.85
2023-01-06T13:06:36.590Z,4.50
2023-01-06T13:09:17.835Z,3.25
2023-01-06T13:12:08.147Z,5.13
2023-01-06T13:14:45.924Z,4.78
2023-01-06T13:17:25.367Z,3.72
2023-01-06T13:19:55.653Z,3.42
2023-01-06T13:22:38.033Z,3.65
2023-01-06T13:25:39.144Z,3.03
2023-01-06T13:28:18.564Z,4.07
2023-01-06T13:31:05.337Z,3.80
2023-01-06T13:34:04.751Z,3.88
2023-01-06T13:37:05.453Z,2.13
2023-01-06T13:39:36.084Z,3.83
2023-01-06T13:42:07.735Z,6.10
2023-01-06T13:44:40.622Z,2.88
2023-01-06T13:47:12.392Z,3.05
2023-01-06T13:49:42.850Z,4.03
2023-01-06T13:52:18.574Z,4.30
2023-01-06T13:55:02.602Z,3.35
2023-01-06T13:57:34.055Z,4.07
2023-01-06T14:00:27.220Z,2.63
2023-01-06T14:03:28.440Z,2.70
2023-01-06T14:05:59.522Z,2.35
2023-01-06T14:08:34.725Z,4.22
2023-01-06T14:11:06.748Z,4.07
2023-01-06T14:16:09.124Z,3.17
2023-01-06T14:18:40.679Z,3.88
2023-01-06T14:21:32.249Z,4.35
2023-01-06T14:24:03.174Z,3.75
2023-01-06T14:26:53.726Z,4.38
2023-01-06T14:29:57.320Z,4.60
2023-01-06T14:33:00.775Z,2.70
2023-01-06T14:35:32.727Z,5.07
2023-01-06T14:38:04.868Z,3.15
2023-01-06T14:40:36.799Z,2.97
2023-01-06T14:43:08.769Z,2.75
2023-01-06T14:45:39.529Z,4.50
2023-01-06T14:48:14.817Z,5.55
2023-01-06T14:50:47.742Z,3.47
2023-01-06T14:53:24.142Z,3.22
2023-01-06T14:55:52.770Z,7.45
2023-01-06T14:58:30.950Z,3.42
2023-01-06T15:01:00.052Z,3.10
2023-01-06T15:03:29.131Z,3.42
2023-01-06T15:06:22.085Z,3.70
2023-01-06T15:08:51.443Z,4.10
2023-01-06T15:11:26.180Z,2.95
2023-01-06T15:13:54.067Z,2.67
2023-01-06T15:16:30.936Z,2.75
2023-01-06T15:18:59.844Z,2.38
2023-01-06T15:21:28.214Z,1.77
2023-01-06T15:23:57.681Z,4.03
2023-01-06T15:26:27.783Z,2.28
2023-01-06T15:29:02.250Z,2.42
2023-01-06T15:31:34.412Z,2.10
2023-01-06T15:34:06.240Z,3.13
2023-01-06T15:36:35.478Z,2.78
2023-01-06T15:39:07.150Z,2.92
2023-01-06T15:41:36.908Z,3.30
2023-01-06T15:44:21.612Z,2.83
2023-01-06T15:46:52.043Z,3.58
2023-01-06T15:49:29.888Z,3.33
2023-01-06T15:52:01.350Z,3.08
2023-01-06T15:54:32.891Z,3.58
2023-01-06T15:57:15.145Z,3.65
2023-01-06T15:59:54.397Z,2.15
2023-01-06T16:02:26.091Z,2.33
2023-01-06T16:04:54.562Z,2.55
2023-01-06T16:07:33.931Z,1.98
2023-01-06T16:10:03.740Z,2.05
2023-01-06T16:12:31.640Z,2.55
2023-01-06T16:14:59.454Z,2.67
2023-01-06T16:17:32.179Z,4.95
2023-01-06T16:20:03.450Z,5.10
2023-01-06T16:22:38.061Z,2.63
2023-01-06T16:25:22.908Z,2.50
2023-01-06T16:27:52.552Z,1.90
2023-01-06T16:30:24.144Z,2.70
2023-01-06T16:32:54.153Z,5.10
2023-01-06T16:35:23.409Z,4.65
2023-01-06T16:37:51.984Z,4.65
2023-01-06T16:40:22.800Z,6.40
2023-01-06T16:42:51.496Z,3.42
2023-01-06T16:45:25.113Z,3.25
2023-01-06T16:47:54.237Z,3.72
2023-01-06T16:50:24.992Z,3.35
2023-01-06T16:53:00.330Z,4.72
2023-01-06T16:55:30.578Z,6.10
2023-01-06T16:58:00.282Z,4.40
2023-01-06T17:00:28.985Z,4.90
2023-01-06T17:02:56.848Z,4.18
2023-01-06T17:05:27.912Z,4.53
2023-01-06T17:08:02.548Z,5.43
2023-01-06T17:10:31.984Z,5.00
2023-01-06T17:13:20.438Z,4.30
2023-01-06T17:15:52.212Z,4.95
2023-01-06T17:18:26.454Z,4.45
2023-01-06T17:20:59.868Z,5.00
2023-01-06T17:23:27.936Z,4.78
2023-01-06T17:26:02.512Z,7.15
2023-01-06T17:28:32.630Z,3.13
2023-01-06T17:31:01.420Z,5.72
2023-01-06T17:33:30.487Z,4.60
2023-01-06T17:35:59.768Z,7.55
2023-01-06T17:38:27.650Z,2.90
2023-01-06T17:40:56.798Z,3.40
2023-01-06T17:43:33.595Z,3.35
2023-01-06T17:46:03.365Z,5.20
2023-01-06T17:48:31.206Z,3.78
2023-01-06T17:50:59.519Z,3.38
2023-01-06T17:53:48.698Z,4.97
2023-01-06T17:56:16.778Z,3.40
2023-01-06T17:58:46.794Z,3.72
2023-01-06T18:01:18.043Z,4.68
2023-01-06T18:03:45.837Z,4.47
2023-01-06T18:06:22.381Z,13.25
2023-01-06T18:08:54.477Z,5.63
2023-01-06T18:13:56.334Z,5.35
2023-01-06T18:16:30.693Z,5.30
2023-01-06T18:19:05.791Z,29.13
2023-01-06T18:21:37.504Z,8.32
2023-01-06T18:24:17.996Z,11.68
2023-01-06T18:26:50.081Z,5.63
2023-01-06T18:31:51.051Z,5.20
2023-01-06T18:34:28.593Z,4.35
2023-01-06T18:36:58.380Z,3.63
2023-01-06T18:39:28.353Z,4.68
2023-01-06T18:42:18.223Z,4.05
2023-01-06T18:44:47.863Z,4.97
2023-01-06T18:47:17.878Z,4.50
2023-01-06T18:49:45.750Z,3.40
2023-01-06T18:52:37.325Z,4.60
2023-01-06T18:55:16.267Z,4.35
2023-01-06T18:57:45.855Z,4.88
2023-01-06T19:00:39.008Z,3.13
2023-01-06T19:03:37.223Z,4.75
2023-01-06T19:06:32.979Z,4.13
2023-01-06T19:09:02.791Z,4.03
2023-01-06T19:11:33.737Z,3.30
2023-01-06T19:14:04.953Z,6.90
2023-01-06T19:16:36.680Z,4.57
2023-01-06T19:19:20.296Z,3.83
2023-01-06T19:21:48.188Z,3.60
2023-01-06T19:24:41.786Z,4.28
2023-01-06T19:27:28.716Z,4.55
2023-01-06T19:30:01.751Z,4.00
2023-01-06T19:32:36.869Z,4.60
2023-01-06T19:35:17.027Z,3.85
2023-01-06T19:37:44.948Z,6.10
2023-01-06T19:40:24.782Z,5.68
2023-01-06T19:42:52.601Z,3.30
2023-01-06T19:45:29.480Z,4.68
2023-01-06T19:47:59.599Z,3.58
2023-01-06T19:50:27.902Z,5.47
2023-01-06T19:52:59.030Z,3.80
2023-01-06T19:55:29.203Z,4.47
2023-01-06T19:58:00.122Z,4.07
2023-01-06T20:00:31.130Z,4.70
2023-01-06T20:03:03.395Z,3.90
2023-01-06T20:05:32.845Z,4.78
2023-01-06T20:08:00.651Z,3.22
2023-01-06T20:10:28.477Z,5.03
2023-01-06T20:12:56.216Z,4.55
2023-01-06T20:15:24.137Z,4.63
2023-01-06T20:17:51.915Z,3.50
2023-01-06T20:20:21.001Z,3.33
2023-01-06T20:22:48.760Z,3.92
2023-01-06T20:25:16.656Z,4.05
2023-01-06T20:27:44.457Z,3.83
2023-01-06T20:30:12.699Z,4.35
2023-01-06T20:32:40.750Z,7.38
2023-01-06T20:35:09.874Z,4.32
2023-01-06T20:37:39.585Z,5.93
2023-01-06T20:40:08.808Z,4.45
2023-01-06T20:42:36.634Z,10.05
2023-01-06T20:45:05.053Z,4.20
2023-01-06T20:47:32.825Z,6.40
2023-01-06T20:50:00.593Z,6.43
2023-01-06T20:52:28.369Z,4.75
2023-01-06T20:54:57.550Z,5.40
2023-01-06T20:57:25.898Z,5.72
2023-01-06T20:59:53.733Z,5.07
2023-01-06T21:02:21.626Z,3.85
2023-01-06T21:04:49.581Z,8.32
2023-01-06T21:07:17.614Z,7.68
2023-01-06T21:09:45.417Z,6.00
2023-01-06T21:12:14.599Z,4.60
2023-01-06T21:14:42.468Z,7.10
2023-01-06T21:17:10.348Z,4.43
2023-01-06T21:19:38.096Z,8.68
2023-01-06T21:22:06.011Z,10.43
2023-01-06T21:24:33.774Z,9.52
2023-01-06T21:27:01.555Z,28.20
2023-01-06T21:29:30.704Z,6.53
2023-01-06T21:31:58.488Z,4.45
2023-01-06T21:34:26.570Z,6.60
2023-01-06T21:36:54.300Z,7.32
2023-01-06T21:39:22.441Z,5.43
2023-01-06T21:42:07.583Z,6.88
2023-01-06T21:44:36.856Z,5.65
2023-01-06T21:47:05.223Z,6.25
2023-01-06T21:49:33.514Z,8.05
2023-01-06T21:52:03.546Z,6.03
2023-01-06T21:54:31.870Z,5.75
2023-01-06T21:56:59.785Z,9.05
2023-01-06T21:59:27.657Z,7.95
2023-01-06T22:01:56.921Z,7.32
2023-01-06T22:04:24.874Z,6.70
2023-01-06T22:06:55.342Z,7.22
2023-01-06T22:09:24.597Z,9.40
2023-01-06T22:11:54.077Z,7.72
2023-01-06T22:14:22.203Z,18.10
2023-01-06T22:16:50.107Z,10.05
2023-01-06T22:19:19.567Z,12.02
2023-01-06T22:21:48.249Z,8.88
2023-01-06T22:24:18.227Z,7.97
2023-01-06T22:26:46.247Z,7.90
2023-01-06T22:29:14.010Z,7.95
2023-01-06T22:31:41.837Z,7.43
2023-01-06T22:34:09.624Z,8.18
2023-01-06T22:36:38.862Z,9.18
2023-01-06T22:39:07.799Z,10.00
2023-01-06T22:41:35.746Z,7.78
2023-01-06T22:44:03.527Z,7.13
2023-01-06T22:46:31.846Z,7.28
2023-01-06T22:48:59.725Z,8.50
2023-01-06T22:51:28.649Z,6.82
2023-01-06T22:53:57.828Z,6.05
2023-01-06T22:56:25.909Z,8.77
2023-01-06T22:58:53.785Z,8.95
2023-01-06T23:01:22.445Z,7.60
2023-01-06T23:03:50.501Z,10.30
2023-01-06T23:06:18.593Z,7.85
2023-01-06T23:08:59.188Z,9.88
2023-01-06T23:11:32.512Z,8.05
2023-01-06T23:16:30.256Z,8.13
2023-01-06T23:18:58.379Z,9.95
2023-01-06T23:21:27.441Z,11.88
2023-01-06T23:23:58.005Z,11.82
2023-01-06T23:26:27.546Z,10.77
2023-01-06T23:28:57.904Z,7.88
2023-01-06T23:31:28.031Z,12.13
2023-01-06T23:33:57.711Z,10.93
2023-01-06T23:36:27.160Z,10.55
2023-01-06T23:38:56.669Z,11.40
2023-01-06T23:41:28.408Z,10.48
2023-01-06T23:43:58.743Z,9.77
2023-01-06T23:46:31.214Z,13.07
2023-01-06T23:48:59.608Z,9.18
2023-01-06T23:51:30.181Z,10.90
2023-01-06T23:53:58.125Z,8.27
2023-01-06T23:56:27.651Z,8.65
2023-01-06T23:58:59.869Z,13.85
